createdAt,value
2022-07-25T00:00:26.519Z,0.00
2022-07-25T00:01:26.568Z,0.00
2022-07-25T00:02:26.597Z,0.00
2022-07-25T00:03:26.619Z,0.00
2022-07-25T00:04:26.668Z,0.00
2022-07-25T00:05:26.709Z,0.00
2022-07-25T00:06:27.530Z,0.00
2022-07-25T00:07:27.664Z,0.00
2022-07-25T00:08:26.777Z,0.00
2022-07-25T00:09:26.720Z,0.00
2022-07-25T00:10:26.803Z,0.00
2022-07-25T00:11:26.785Z,0.00
2022-07-25T00:12:26.804Z,0.00
2022-07-25T00:13:26.762Z,0.00
2022-07-25T00:14:27.659Z,0.00
2022-07-25T00:15:26.882Z,0.00
2022-07-25T00:16:27.025Z,0.00
2022-07-25T00:17:27.021Z,0.00
2022-07-25T00:18:27.004Z,0.00
2022-07-25T00:19:26.955Z,0.00
2022-07-25T00:20:27.013Z,0.00
2022-07-25T00:21:27.103Z,0.00
2022-07-25T00:22:27.213Z,0.00
2022-07-25T00:23:27.210Z,0.00
2022-07-25T00:24:27.154Z,0.00
2022-07-25T00:25:27.206Z,0.00
2022-07-25T00:26:27.249Z,0.00
2022-07-25T00:27:27.309Z,0.00
2022-07-25T00:28:27.365Z,0.00
2022-07-25T00:29:27.428Z,0.00
2022-07-25T00:30:27.466Z,0.00
2022-07-25T00:31:27.568Z,0.00
2022-07-25T00:32:27.527Z,0.00
2022-07-25T00:33:27.578Z,0.00
2022-07-25T00:34:27.629Z,0.00
2022-07-25T00:35:27.671Z,0.00
2022-07-25T00:36:27.758Z,0.00
2022-07-25T00:37:27.719Z,0.00
2022-07-25T00:38:27.769Z,0.00
2022-07-25T00:39:27.832Z,0.00
2022-07-25T00:40:27.869Z,0.00
2022-07-25T00:41:27.951Z,0.00
2022-07-25T00:42:28.662Z,0.00
2022-07-25T00:43:27.961Z,0.00
2022-07-25T00:44:28.011Z,0.00
2022-07-25T00:45:28.062Z,0.00
2022-07-25T00:46:28.184Z,0.00
2022-07-25T00:47:28.137Z,0.00
2022-07-25T00:48:28.311Z,0.00
2022-07-25T00:49:28.235Z,0.00
2022-07-25T00:50:28.205Z,0.00
2022-07-25T00:51:28.284Z,0.00
2022-07-25T00:52:28.244Z,0.00
2022-07-25T00:53:28.324Z,0.00
2022-07-25T00:54:28.296Z,0.00
2022-07-25T00:55:28.347Z,0.00
2022-07-25T00:56:28.395Z,0.00
2022-07-25T00:57:28.456Z,0.00
2022-07-25T00:58:28.532Z,0.00
2022-07-25T00:59:28.566Z,0.00
2022-07-25T01:00:28.598Z,0.00
2022-07-25T01:01:28.662Z,0.00
2022-07-25T01:02:28.707Z,0.00
2022-07-25T01:03:28.728Z,0.00
2022-07-25T01:04:28.781Z,0.00
2022-07-25T01:05:28.831Z,0.00
2022-07-25T01:06:28.870Z,0.00
2022-07-25T01:07:28.919Z,0.00
2022-07-25T01:08:28.979Z,0.00
2022-07-25T01:09:29.030Z,0.00
2022-07-25T01:10:29.069Z,0.00
2022-07-25T01:11:29.130Z,0.00
2022-07-25T01:12:29.179Z,0.00
2022-07-25T01:13:29.242Z,0.00
2022-07-25T01:14:29.292Z,0.00
2022-07-25T01:15:29.422Z,0.00
2022-07-25T01:16:29.384Z,0.00
2022-07-25T01:17:29.423Z,0.00
2022-07-25T01:18:29.462Z,0.00
2022-07-25T01:19:29.505Z,0.00
2022-07-25T01:20:29.545Z,0.00
2022-07-25T01:21:29.585Z,0.00
2022-07-25T01:22:29.635Z,0.00
2022-07-25T01:23:29.706Z,0.00
2022-07-25T01:24:29.664Z,0.00
2022-07-25T01:25:29.733Z,0.00
2022-07-25T01:26:29.765Z,0.00
2022-07-25T01:27:29.808Z,0.00
2022-07-25T01:28:29.868Z,0.00
2022-07-25T01:29:29.907Z,0.00
2022-07-25T01:30:29.956Z,0.00
2022-07-25T01:31:30.062Z,0.00
2022-07-25T01:32:30.027Z,0.00
2022-07-25T01:33:30.089Z,0.00
2022-07-25T01:34:30.129Z,0.00
2022-07-25T01:35:30.180Z,0.00
2022-07-25T01:36:30.261Z,0.00
2022-07-25T01:37:30.289Z,0.00
2022-07-25T01:38:30.360Z,0.00
2022-07-25T01:39:30.401Z,0.00
2022-07-25T01:40:30.469Z,0.00
2022-07-25T01:41:30.522Z,0.00
2022-07-25T01:42:30.560Z,0.00
2022-07-25T01:43:30.611Z,0.00
2022-07-25T01:44:30.653Z,0.00
2022-07-25T01:45:30.711Z,0.00
2022-07-25T01:46:30.817Z,0.00
2022-07-25T01:47:30.783Z,0.00
2022-07-25T01:48:30.892Z,0.00
2022-07-25T01:49:30.863Z,0.00
2022-07-25T01:50:30.914Z,0.00
2022-07-25T01:51:31.023Z,0.00
2022-07-25T01:52:30.987Z,0.00
2022-07-25T01:53:31.044Z,0.00
2022-07-25T01:54:31.066Z,0.00
2022-07-25T01:55:31.161Z,0.00
2022-07-25T01:56:31.875Z,0.00
2022-07-25T01:57:31.376Z,0.00
2022-07-25T01:58:31.237Z,0.00
2022-07-25T01:59:31.278Z,0.00
2022-07-25T02:00:31.309Z,0.00
2022-07-25T02:01:31.399Z,0.00
2022-07-25T02:02:31.358Z,0.00
2022-07-25T02:03:31.413Z,0.00
2022-07-25T02:04:31.488Z,0.00
2022-07-25T02:05:31.500Z,0.00
2022-07-25T02:06:31.532Z,0.00
2022-07-25T02:07:31.571Z,0.00
2022-07-25T02:08:31.610Z,0.00
2022-07-25T02:09:31.682Z,0.00
2022-07-25T02:10:31.648Z,0.00
2022-07-25T02:11:31.693Z,0.00
2022-07-25T02:12:31.742Z,0.00
2022-07-25T02:13:31.784Z,0.00
2022-07-25T02:14:31.843Z,0.00
2022-07-25T02:15:31.884Z,0.00
2022-07-25T02:16:31.968Z,0.00
2022-07-25T02:17:31.993Z,0.00
2022-07-25T02:18:32.034Z,0.00
2022-07-25T02:19:32.085Z,0.00
2022-07-25T02:20:32.146Z,0.00
2022-07-25T02:21:32.197Z,0.00
2022-07-25T02:22:32.227Z,0.00
2022-07-25T02:23:32.282Z,0.00
2022-07-25T02:24:32.338Z,0.00
2022-07-25T02:25:32.377Z,0.00
2022-07-25T02:26:32.407Z,0.00
2022-07-25T02:27:32.447Z,0.00
2022-07-25T02:28:32.497Z,0.00
2022-07-25T02:29:32.488Z,0.00
2022-07-25T02:30:32.594Z,0.00
2022-07-25T02:31:32.529Z,0.00
2022-07-25T02:32:32.567Z,0.00
2022-07-25T02:33:32.610Z,0.00
2022-07-25T02:34:32.653Z,0.00
2022-07-25T02:35:32.704Z,0.00
2022-07-25T02:36:32.752Z,0.00
2022-07-25T02:37:32.803Z,0.00
2022-07-25T02:38:32.840Z,0.00
2022-07-25T02:39:32.882Z,0.00
2022-07-25T02:40:32.926Z,0.00
2022-07-25T02:41:32.983Z,0.00
2022-07-25T02:42:33.086Z,0.00
2022-07-25T02:43:33.272Z,0.00
2022-07-25T02:44:33.997Z,0.00
2022-07-25T02:45:33.958Z,0.00
2022-07-25T02:46:33.270Z,0.00
2022-07-25T02:47:33.175Z,0.00
2022-07-25T02:48:33.260Z,0.00
2022-07-25T02:49:34.081Z,0.00
2022-07-25T02:50:33.414Z,0.00
2022-07-25T02:51:33.268Z,0.00
2022-07-25T02:52:33.337Z,4.00
2022-07-25T02:53:56.017Z,4.00
2022-07-25T02:54:33.461Z,4.00
2022-07-25T02:55:33.558Z,4.00
2022-07-25T02:56:33.548Z,0.00
2022-07-25T02:57:33.500Z,4.00
2022-07-25T02:58:33.519Z,4.00
2022-07-25T02:59:33.509Z,8.00
2022-07-25T03:00:33.563Z,4.00
2022-07-25T03:01:33.631Z,8.00
2022-07-25T03:02:33.801Z,4.00
2022-07-25T03:03:33.854Z,8.00
2022-07-25T03:04:33.928Z,8.00
2022-07-25T03:05:33.791Z,8.00
2022-07-25T03:06:33.853Z,8.00
2022-07-25T03:07:33.895Z,12.00
2022-07-25T03:08:34.757Z,16.00
2022-07-25T03:09:34.076Z,16.00
2022-07-25T03:10:33.985Z,20.00
2022-07-25T03:11:34.039Z,24.00
2022-07-25T03:12:33.987Z,28.00
2022-07-25T03:13:33.979Z,32.00
2022-07-25T03:14:34.171Z,32.00
2022-07-25T03:15:34.056Z,36.00
2022-07-25T03:16:34.995Z,36.00
2022-07-25T03:19:00.058Z,56.00
2022-07-25T03:20:00.053Z,60.00
2022-07-25T03:21:00.157Z,68.00
2022-07-25T03:22:00.178Z,72.00
2022-07-25T03:23:00.313Z,84.00
2022-07-25T03:24:00.219Z,92.00
2022-07-25T03:25:00.260Z,96.00
2022-07-25T03:26:00.272Z,108.00
2022-07-25T03:28:26.314Z,152.00
2022-07-25T03:29:26.282Z,164.00
2022-07-25T03:30:26.414Z,168.00
2022-07-25T03:31:26.509Z,200.00
2022-07-25T03:32:26.502Z,220.00
2022-07-25T03:33:26.495Z,236.00
2022-07-25T03:34:26.521Z,240.00
2022-07-25T03:35:26.605Z,268.00
2022-07-25T03:36:26.536Z,288.00
2022-07-25T03:37:26.525Z,324.00
2022-07-25T03:38:26.526Z,344.00
2022-07-25T03:39:26.515Z,372.00
2022-07-25T03:40:26.586Z,400.00
2022-07-25T03:41:27.982Z,424.00
2022-07-25T03:42:31.033Z,440.00
2022-07-25T03:43:26.697Z,496.00
2022-07-25T03:44:26.797Z,520.00
2022-07-25T03:45:27.610Z,568.00
2022-07-25T03:46:26.822Z,584.00
2022-07-25T03:47:26.829Z,652.00
2022-07-25T03:48:26.992Z,660.00
2022-07-25T03:49:26.928Z,708.00
2022-07-25T03:50:26.968Z,784.00
2022-07-25T03:51:27.940Z,824.00
2022-07-25T03:52:27.017Z,840.00
2022-07-25T03:53:26.998Z,884.00
2022-07-25T03:54:27.081Z,1000.00
2022-07-25T03:55:26.990Z,1076.00
2022-07-25T03:56:27.032Z,1084.00
2022-07-25T03:57:27.172Z,1156.00
2022-07-25T03:58:27.120Z,1236.00
2022-07-25T03:59:27.132Z,1308.00
2022-07-25T04:00:27.229Z,1352.00
2022-07-25T04:01:27.241Z,1336.00
2022-07-25T04:02:27.395Z,1460.00
2022-07-25T04:03:27.353Z,1568.00
2022-07-25T04:04:27.283Z,1640.00
2022-07-25T04:05:27.223Z,1688.00
2022-07-25T04:06:27.272Z,1760.00
2022-07-25T04:07:27.327Z,1760.00
2022-07-25T04:08:27.379Z,1892.00
2022-07-25T04:09:27.457Z,1924.00
2022-07-25T04:10:27.416Z,2052.00
2022-07-25T04:11:27.467Z,2032.00
2022-07-25T04:12:27.457Z,2052.00
2022-07-25T04:13:27.570Z,2184.00
2022-07-25T04:14:27.640Z,2240.00
2022-07-25T04:15:27.754Z,2272.00
2022-07-25T04:16:28.607Z,2428.00
2022-07-25T04:17:27.649Z,2536.00
2022-07-25T04:18:28.890Z,2528.00
2022-07-25T04:19:28.872Z,2540.00
2022-07-25T04:20:27.667Z,2656.00
2022-07-25T04:21:28.588Z,2724.00
2022-07-25T04:22:27.785Z,2788.00
2022-07-25T04:23:27.830Z,2980.00
2022-07-25T04:24:27.892Z,3008.00
2022-07-25T04:25:27.885Z,3084.00
2022-07-25T04:26:27.973Z,3168.00
2022-07-25T04:27:27.972Z,3136.00
2022-07-25T04:28:27.927Z,3272.00
2022-07-25T04:29:28.791Z,3372.00
2022-07-25T04:30:27.979Z,3400.00
2022-07-25T04:31:28.093Z,3444.00
2022-07-25T04:32:28.004Z,3448.00
2022-07-25T04:33:28.005Z,3568.00
2022-07-25T04:34:28.017Z,3648.00
2022-07-25T04:35:28.108Z,3788.00
2022-07-25T04:36:28.175Z,3960.00
2022-07-25T04:37:28.187Z,3992.00
2022-07-25T04:38:28.178Z,4064.00
2022-07-25T04:39:28.209Z,4084.00
2022-07-25T04:40:28.266Z,4184.00
2022-07-25T04:41:28.278Z,4224.00
2022-07-25T04:42:28.287Z,4372.00
2022-07-25T04:43:28.277Z,4468.00
2022-07-25T04:44:28.279Z,4628.00
2022-07-25T04:45:28.294Z,4660.00
2022-07-25T04:46:28.338Z,4736.00
2022-07-25T04:47:28.351Z,4884.00
2022-07-25T04:48:28.381Z,5136.00
2022-07-25T04:49:28.323Z,5184.00
2022-07-25T04:50:28.352Z,5232.00
2022-07-25T04:51:28.320Z,5132.00
2022-07-25T04:52:28.399Z,5560.00
2022-07-25T04:53:28.471Z,5600.00
2022-07-25T04:54:28.480Z,5752.00
2022-07-25T04:55:28.572Z,5708.00
2022-07-25T04:56:28.623Z,5832.00
2022-07-25T04:57:28.692Z,6108.00
2022-07-25T04:58:29.540Z,6208.00
2022-07-25T04:59:28.707Z,6308.00
2022-07-25T05:00:28.728Z,6368.00
2022-07-25T05:01:28.828Z,6416.00
2022-07-25T05:02:29.912Z,6416.00
2022-07-25T05:03:28.861Z,6432.00
2022-07-25T05:04:28.921Z,6524.00
2022-07-25T05:05:28.993Z,6588.00
2022-07-25T05:06:29.001Z,6788.00
2022-07-25T05:07:29.056Z,6836.00
2022-07-25T05:08:29.057Z,6956.00
2022-07-25T05:09:29.083Z,6916.00
2022-07-25T05:10:29.090Z,6940.00
2022-07-25T05:11:29.252Z,7048.00
2022-07-25T05:12:29.217Z,7232.00
2022-07-25T05:14:55.141Z,7332.00
2022-07-25T05:17:21.110Z,7664.00
2022-07-25T05:18:21.160Z,7756.00
2022-07-25T05:19:21.161Z,8032.00
2022-07-25T05:20:23.562Z,8040.00
2022-07-25T05:21:21.372Z,8148.00
2022-07-25T05:22:25.134Z,8296.00
2022-07-25T05:23:21.342Z,8584.00
2022-07-25T05:24:21.397Z,8556.00
2022-07-25T05:26:47.473Z,8996.00
2022-07-25T05:27:47.534Z,9172.00
2022-07-25T05:28:47.545Z,9316.00
2022-07-25T05:29:47.604Z,9348.00
2022-07-25T05:30:47.679Z,9600.00
2022-07-25T05:31:47.756Z,9704.00
2022-07-25T05:32:47.678Z,9700.00
2022-07-25T05:33:47.752Z,9852.00
2022-07-25T05:34:47.735Z,10272.00
2022-07-25T05:35:47.717Z,10024.00
2022-07-25T05:36:47.716Z,13892.00
2022-07-25T05:37:47.778Z,40832.00
2022-07-25T05:38:47.829Z,60096.00
2022-07-25T05:39:47.876Z,63520.00
2022-07-25T05:40:47.928Z,68608.00
2022-07-25T05:41:47.966Z,72416.00
2022-07-25T05:42:47.999Z,74592.00
2022-07-25T05:43:48.040Z,73568.00
2022-07-25T05:44:48.100Z,74976.00
2022-07-25T05:45:48.150Z,73312.00
2022-07-25T05:46:48.257Z,73472.00
2022-07-25T05:47:48.191Z,68288.00
2022-07-25T05:48:48.287Z,66848.00
2022-07-25T05:49:48.271Z,72448.00
2022-07-25T05:50:48.322Z,79040.00
2022-07-25T05:51:48.382Z,81312.00
2022-07-25T05:52:48.416Z,80736.00
2022-07-25T05:53:48.476Z,80576.00
2022-07-25T05:54:48.514Z,80576.00
2022-07-25T05:55:48.563Z,83552.00
2022-07-25T05:56:48.618Z,76288.00
2022-07-25T05:57:48.668Z,63968.00
2022-07-25T05:58:48.710Z,67264.00
2022-07-25T05:59:48.758Z,56064.00
2022-07-25T06:00:48.759Z,27872.00
2022-07-25T06:01:48.880Z,23008.00
2022-07-25T06:02:48.883Z,38528.00
2022-07-25T06:03:48.840Z,62720.00
2022-07-25T06:04:48.880Z,52768.00
2022-07-25T06:05:48.915Z,54208.00
2022-07-25T06:06:48.960Z,51104.00
2022-07-25T06:07:48.960Z,22656.00
2022-07-25T06:08:48.972Z,11348.00
2022-07-25T06:09:48.973Z,13204.00
2022-07-25T06:10:49.043Z,66304.00
2022-07-25T06:11:54.662Z,75360.00
2022-07-25T06:12:49.123Z,62592.00
2022-07-25T06:13:49.145Z,50880.00
2022-07-25T06:14:49.176Z,78400.00
2022-07-25T06:15:49.186Z,58752.00
2022-07-25T06:16:49.282Z,87808.00
2022-07-25T06:17:49.256Z,37632.00
2022-07-25T06:18:49.319Z,56768.00
2022-07-25T06:19:49.357Z,33600.00
2022-07-25T06:20:49.368Z,17728.00
2022-07-25T06:21:49.398Z,31744.00
2022-07-25T06:22:49.444Z,48384.00
2022-07-25T06:23:49.520Z,64608.00
2022-07-25T06:24:49.482Z,79008.00
2022-07-25T06:25:50.018Z,66080.00
2022-07-25T06:26:49.550Z,34464.00
2022-07-25T06:27:49.591Z,63264.00
2022-07-25T06:28:49.652Z,76896.00
2022-07-25T06:29:49.644Z,92000.00
2022-07-25T06:30:49.684Z,82848.00
2022-07-25T06:31:49.771Z,82144.00
2022-07-25T06:32:49.774Z,78592.00
2022-07-25T06:33:49.834Z,81408.00
2022-07-25T06:34:49.885Z,80064.00
2022-07-25T06:35:49.897Z,83456.00
2022-07-25T06:36:49.945Z,85856.00
2022-07-25T06:37:49.946Z,77184.00
2022-07-25T06:38:50.010Z,77888.00
2022-07-25T06:39:50.008Z,67648.00
2022-07-25T06:40:50.039Z,50592.00
2022-07-25T06:44:42.040Z,29824.00
2022-07-25T06:45:42.048Z,24384.00
2022-07-25T06:46:42.144Z,23040.00
2022-07-25T06:47:42.147Z,25760.00
2022-07-25T06:48:42.172Z,26272.00
2022-07-25T06:49:42.198Z,21248.00
2022-07-25T06:50:42.206Z,20384.00
2022-07-25T06:51:42.215Z,19168.00
2022-07-25T06:52:42.214Z,20992.00
2022-07-25T06:53:42.211Z,17184.00
2022-07-25T06:54:42.231Z,18176.00
2022-07-25T06:55:42.254Z,18784.00
2022-07-25T06:56:42.262Z,24896.00
2022-07-25T06:57:42.256Z,25632.00
2022-07-25T06:58:42.245Z,26496.00
2022-07-25T06:59:42.272Z,26624.00
2022-07-25T07:00:42.403Z,37440.00
2022-07-25T07:01:42.367Z,44512.00
2022-07-25T07:02:42.416Z,45152.00
2022-07-25T07:03:42.528Z,35072.00
2022-07-25T07:04:42.495Z,38560.00
2022-07-25T07:05:42.542Z,31840.00
2022-07-25T07:06:42.589Z,25760.00
2022-07-25T07:07:47.424Z,25920.00
2022-07-25T07:08:42.619Z,27328.00
2022-07-25T07:09:42.630Z,35392.00
2022-07-25T07:10:42.674Z,36288.00
2022-07-25T07:11:42.720Z,35360.00
2022-07-25T07:12:42.762Z,40576.00
2022-07-25T07:13:42.810Z,34976.00
2022-07-25T07:14:42.883Z,39040.00
2022-07-25T07:15:42.957Z,37728.00
2022-07-25T07:16:43.015Z,45472.00
2022-07-25T07:17:42.994Z,29728.00
2022-07-25T07:18:47.194Z,36736.00
2022-07-25T07:19:43.088Z,39392.00
2022-07-25T07:20:43.125Z,76352.00
2022-07-25T07:21:43.171Z,73600.00
2022-07-25T07:22:43.225Z,67712.00
2022-07-25T07:23:43.268Z,31488.00
2022-07-25T07:24:44.114Z,47520.00
2022-07-25T07:27:09.329Z,37408.00
2022-07-25T07:28:09.360Z,39552.00
2022-07-25T07:29:09.668Z,31616.00
2022-07-25T07:30:09.461Z,28960.00
2022-07-25T07:31:17.631Z,49856.00
2022-07-25T07:32:09.635Z,45920.00
2022-07-25T07:33:09.583Z,76448.00
2022-07-25T07:34:09.623Z,69120.00
2022-07-25T07:35:09.641Z,74528.00
2022-07-25T07:36:09.674Z,82240.00
2022-07-25T07:37:09.736Z,73184.00
2022-07-25T07:38:09.775Z,66240.00
2022-07-25T07:39:09.982Z,51360.00
2022-07-25T07:40:09.893Z,49664.00
2022-07-25T07:41:09.930Z,46656.00
2022-07-25T07:42:09.996Z,44768.00
2022-07-25T07:43:10.036Z,48416.00
2022-07-25T07:44:10.108Z,47072.00
2022-07-25T07:45:10.082Z,52192.00
2022-07-25T07:46:10.174Z,52544.00
2022-07-25T07:47:14.475Z,39072.00
2022-07-25T07:48:10.164Z,35584.00
2022-07-25T07:49:10.948Z,29600.00
2022-07-25T07:50:10.241Z,29888.00
2022-07-25T07:51:10.211Z,28384.00
2022-07-25T07:52:10.262Z,49536.00
2022-07-25T07:53:10.324Z,50176.00
2022-07-25T07:54:10.339Z,42464.00
2022-07-25T07:55:10.313Z,41056.00
2022-07-25T07:56:10.365Z,46336.00
2022-07-25T07:57:10.415Z,60384.00
2022-07-25T07:58:10.456Z,66752.00
2022-07-25T07:59:10.737Z,65600.00
2022-07-25T08:00:14.802Z,60960.00
2022-07-25T08:01:10.576Z,54080.00
2022-07-25T08:02:10.557Z,50208.00
2022-07-25T08:03:10.648Z,46208.00
2022-07-25T08:04:10.588Z,54464.00
2022-07-25T08:05:10.632Z,65184.00
2022-07-25T08:06:10.678Z,53248.00
2022-07-25T08:07:10.709Z,46432.00
2022-07-25T08:08:10.750Z,71744.00
2022-07-25T08:09:10.821Z,68320.00
2022-07-25T08:10:10.852Z,68288.00
2022-07-25T08:11:10.911Z,56160.00
2022-07-25T08:12:10.891Z,24544.00
2022-07-25T08:13:10.933Z,42176.00
2022-07-25T08:14:11.052Z,62720.00
2022-07-25T08:15:11.002Z,62592.00
2022-07-25T08:16:11.088Z,60960.00
2022-07-25T08:17:12.790Z,55584.00
2022-07-25T08:18:17.547Z,55200.00
2022-07-25T08:19:11.157Z,52416.00
2022-07-25T08:20:36.311Z,51712.00
2022-07-25T08:21:11.181Z,52352.00
2022-07-25T08:22:11.218Z,52704.00
2022-07-25T08:23:11.267Z,59904.00
2022-07-25T08:24:11.318Z,60992.00
2022-07-25T08:25:11.381Z,55904.00
2022-07-25T08:26:11.433Z,66752.00
2022-07-25T08:27:11.471Z,65952.00
2022-07-25T08:28:11.511Z,64992.00
2022-07-25T08:29:19.169Z,69152.00
2022-07-25T08:30:11.621Z,71264.00
2022-07-25T08:31:11.742Z,77600.00
2022-07-25T08:32:11.701Z,84160.00
2022-07-25T08:33:11.742Z,81024.00
2022-07-25T08:34:11.783Z,74944.00
2022-07-25T08:35:11.832Z,66944.00
2022-07-25T08:36:11.895Z,72544.00
2022-07-25T08:37:11.904Z,73216.00
2022-07-25T08:38:11.985Z,72736.00
2022-07-25T08:39:11.979Z,68064.00
2022-07-25T08:40:12.016Z,62752.00
2022-07-25T08:41:12.027Z,60032.00
2022-07-25T08:42:12.029Z,57888.00
2022-07-25T08:43:12.077Z,49856.00
2022-07-25T08:44:12.096Z,45568.00
2022-07-25T08:45:12.159Z,42240.00
2022-07-25T08:46:12.219Z,48672.00
2022-07-25T08:47:12.252Z,55904.00
2022-07-25T08:48:12.259Z,52928.00
2022-07-25T08:49:12.333Z,60928.00
2022-07-25T08:50:12.332Z,63744.00
2022-07-25T08:51:12.401Z,64288.00
2022-07-25T08:52:12.427Z,65824.00
2022-07-25T08:54:12.363Z,40768.00
2022-07-25T08:55:12.413Z,27296.00
2022-07-25T08:56:17.391Z,24096.00
2022-07-25T08:57:12.407Z,29888.00
2022-07-25T08:58:12.485Z,44608.00
2022-07-25T08:59:12.529Z,35552.00
2022-07-25T09:00:12.476Z,37504.00
2022-07-25T09:01:12.615Z,29088.00
2022-07-25T09:02:12.604Z,28544.00
2022-07-25T09:03:12.634Z,26176.00
2022-07-25T09:04:12.629Z,26272.00
2022-07-25T09:05:12.678Z,27392.00
2022-07-25T09:06:12.710Z,28608.00
2022-07-25T09:07:12.778Z,29056.00
2022-07-25T09:08:12.825Z,29952.00
2022-07-25T09:09:12.906Z,28800.00
2022-07-25T09:10:12.931Z,31040.00
2022-07-25T09:11:12.932Z,32800.00
2022-07-25T09:12:13.027Z,34976.00
2022-07-25T09:13:12.984Z,34528.00
2022-07-25T09:14:15.039Z,35776.00
2022-07-25T09:15:13.005Z,28960.00
2022-07-25T09:16:13.157Z,25216.00
2022-07-25T09:17:22.545Z,24704.00
2022-07-25T09:19:39.064Z,22464.00
2022-07-25T09:20:39.116Z,24928.00
2022-07-25T09:21:39.089Z,26400.00
2022-07-25T09:22:39.101Z,26176.00
2022-07-25T09:23:39.119Z,27712.00
2022-07-25T09:24:39.179Z,28704.00
2022-07-25T09:25:39.218Z,31328.00
2022-07-25T09:26:39.219Z,29792.00
2022-07-25T09:27:39.261Z,29216.00
2022-07-25T09:28:39.322Z,31840.00
2022-07-25T09:29:39.330Z,30304.00
2022-07-25T09:30:39.342Z,32416.00
2022-07-25T09:31:39.433Z,38080.00
2022-07-25T09:32:39.453Z,40992.00
2022-07-25T09:33:39.453Z,45280.00
2022-07-25T09:34:39.514Z,44704.00
2022-07-25T09:35:39.525Z,41248.00
2022-07-25T09:36:39.584Z,43200.00
2022-07-25T09:37:39.626Z,38816.00
2022-07-25T09:38:39.634Z,40960.00
2022-07-25T09:39:45.437Z,37440.00
2022-07-25T09:40:39.703Z,34432.00
2022-07-25T09:41:39.758Z,30976.00
2022-07-25T09:42:39.766Z,31168.00
2022-07-25T09:43:39.769Z,29472.00
2022-07-25T09:44:39.769Z,28000.00
2022-07-25T09:45:39.761Z,27168.00
2022-07-25T09:46:39.835Z,28544.00
2022-07-25T09:47:39.839Z,26560.00
2022-07-25T09:48:39.933Z,28448.00
2022-07-25T09:49:39.921Z,28704.00
2022-07-25T09:50:39.979Z,29216.00
2022-07-25T09:51:40.001Z,25504.00
2022-07-25T09:52:40.051Z,27072.00
2022-07-25T09:53:40.134Z,27808.00
2022-07-25T09:54:40.151Z,25696.00
2022-07-25T09:57:06.163Z,22848.00
2022-07-25T09:58:06.214Z,21376.00
2022-07-25T09:59:06.296Z,21152.00
2022-07-25T10:01:32.363Z,24768.00
2022-07-25T10:02:32.343Z,25664.00
2022-07-25T10:03:32.398Z,26080.00
2022-07-25T10:04:32.433Z,23680.00
2022-07-25T10:05:32.511Z,26240.00
2022-07-25T10:06:32.558Z,24256.00
2022-07-25T10:07:32.579Z,23488.00
2022-07-25T10:08:32.563Z,23424.00
2022-07-25T10:09:32.610Z,21664.00
2022-07-25T10:10:32.681Z,20576.00
2022-07-25T10:11:32.725Z,19872.00
2022-07-25T10:12:32.782Z,19008.00
2022-07-25T10:13:32.782Z,17376.00
2022-07-25T10:14:32.794Z,16960.00
2022-07-25T10:15:32.842Z,16200.00
2022-07-25T10:16:32.942Z,15460.00
2022-07-25T10:17:32.904Z,15348.00
2022-07-25T10:18:32.953Z,14700.00
2022-07-25T10:19:33.005Z,14504.00
2022-07-25T10:20:33.057Z,14140.00
2022-07-25T10:21:33.074Z,13596.00
2022-07-25T10:22:54.776Z,13160.00
2022-07-25T10:23:33.137Z,12784.00
2022-07-25T10:24:33.168Z,12068.00
2022-07-25T10:25:33.194Z,11580.00
2022-07-25T10:26:33.238Z,11648.00
2022-07-25T10:27:33.239Z,11076.00
2022-07-25T10:28:33.320Z,10980.00
2022-07-25T10:29:33.387Z,10680.00
2022-07-25T10:30:33.410Z,10816.00
2022-07-25T10:31:33.400Z,10856.00
2022-07-25T10:35:25.370Z,11476.00
2022-07-25T10:36:25.360Z,11856.00
2022-07-25T10:37:25.401Z,12444.00
2022-07-25T10:38:25.392Z,13224.00
2022-07-25T10:39:25.414Z,14052.00
2022-07-25T10:40:25.456Z,15180.00
2022-07-25T10:41:25.500Z,16896.00
2022-07-25T10:42:25.523Z,23104.00
2022-07-25T10:43:25.608Z,22880.00
2022-07-25T10:44:25.608Z,21824.00
2022-07-25T10:45:25.625Z,20160.00
2022-07-25T10:46:25.722Z,19776.00
2022-07-25T10:47:25.755Z,17440.00
2022-07-25T10:48:25.832Z,17088.00
2022-07-25T10:49:31.919Z,19712.00
2022-07-25T10:50:53.488Z,18496.00
2022-07-25T10:51:25.808Z,17952.00
2022-07-25T10:52:25.814Z,16960.00
2022-07-25T10:53:25.879Z,17088.00
2022-07-25T10:54:25.910Z,17312.00
2022-07-25T10:55:25.950Z,17856.00
2022-07-25T10:56:26.019Z,19520.00
2022-07-25T10:57:31.224Z,21024.00
2022-07-25T10:58:26.031Z,20928.00
2022-07-25T10:59:26.022Z,29152.00
2022-07-25T11:00:26.072Z,22048.00
2022-07-25T11:01:26.163Z,18688.00
2022-07-25T11:02:26.218Z,19360.00
2022-07-25T11:03:26.166Z,25312.00
2022-07-25T11:04:26.159Z,25440.00
2022-07-25T11:05:26.177Z,28384.00
2022-07-25T11:06:26.217Z,26528.00
2022-07-25T11:07:26.231Z,25280.00
2022-07-25T11:08:26.226Z,24416.00
2022-07-25T11:09:27.667Z,24224.00
2022-07-25T11:10:26.358Z,24000.00
2022-07-25T11:11:26.465Z,21472.00
2022-07-25T11:12:26.398Z,19712.00
2022-07-25T11:13:26.461Z,18816.00
2022-07-25T11:14:26.540Z,17600.00
2022-07-25T11:15:26.626Z,15360.00
2022-07-25T11:16:26.714Z,15880.00
2022-07-25T11:17:26.582Z,13588.00
2022-07-25T11:18:26.582Z,14004.00
2022-07-25T11:19:26.603Z,15672.00
2022-07-25T11:20:26.591Z,15164.00
2022-07-25T11:21:26.573Z,15208.00
2022-07-25T11:22:26.613Z,17024.00
2022-07-25T11:23:26.634Z,17472.00
2022-07-25T11:24:26.704Z,17280.00
2022-07-25T11:25:26.715Z,18432.00
2022-07-25T11:26:26.979Z,18368.00
2022-07-25T11:27:26.819Z,19840.00
2022-07-25T11:28:26.847Z,19584.00
2022-07-25T11:29:26.847Z,18656.00
2022-07-25T11:30:26.891Z,18048.00
2022-07-25T11:31:26.976Z,17984.00
2022-07-25T11:32:26.931Z,15868.00
2022-07-25T11:33:27.011Z,16576.00
2022-07-25T11:34:27.000Z,16512.00
2022-07-25T11:35:26.979Z,15772.00
2022-07-25T11:36:26.991Z,15432.00
2022-07-25T11:37:27.062Z,15956.00
2022-07-25T11:38:27.048Z,16448.00
2022-07-25T11:39:27.110Z,16640.00
2022-07-25T11:40:27.124Z,17536.00
2022-07-25T11:41:27.165Z,17632.00
2022-07-25T11:42:27.194Z,17216.00
2022-07-25T11:43:27.195Z,17088.00
2022-07-25T11:44:27.265Z,17120.00
2022-07-25T11:45:27.281Z,17760.00
2022-07-25T11:46:27.415Z,17472.00
2022-07-25T11:47:27.388Z,17824.00
2022-07-25T11:48:27.481Z,17088.00
2022-07-25T11:49:27.395Z,15640.00
2022-07-25T11:50:27.371Z,14732.00
2022-07-25T11:51:27.378Z,13512.00
2022-07-25T11:52:27.513Z,12760.00
2022-07-25T11:53:27.419Z,11580.00
2022-07-25T11:54:27.441Z,10992.00
2022-07-25T11:55:27.520Z,10872.00
2022-07-25T11:56:43.708Z,10748.00
2022-07-25T11:57:27.610Z,10388.00
2022-07-25T11:58:27.643Z,10232.00
2022-07-25T11:59:28.393Z,9528.00
2022-07-25T12:00:27.768Z,8868.00
2022-07-25T12:01:27.866Z,8344.00
2022-07-25T12:02:27.877Z,8428.00
2022-07-25T12:03:27.923Z,8412.00
2022-07-25T12:04:27.887Z,8932.00
2022-07-25T12:05:27.876Z,9548.00
2022-07-25T12:06:27.918Z,10576.00
2022-07-25T12:07:27.944Z,11564.00
2022-07-25T12:08:27.959Z,12700.00
2022-07-25T12:09:28.015Z,13340.00
2022-07-25T12:10:28.149Z,13744.00
2022-07-25T12:11:28.087Z,13172.00
2022-07-25T12:12:28.100Z,12880.00
2022-07-25T12:13:28.137Z,11512.00
2022-07-25T12:14:31.189Z,10308.00
2022-07-25T12:15:28.212Z,9796.00
2022-07-25T12:16:28.321Z,9268.00
2022-07-25T12:17:28.281Z,8892.00
2022-07-25T12:18:28.369Z,8496.00
2022-07-25T12:19:28.383Z,8132.00
2022-07-25T12:20:28.455Z,8256.00
2022-07-25T12:21:28.503Z,8156.00
2022-07-25T12:22:28.473Z,8680.00
2022-07-25T12:23:28.549Z,9144.00
2022-07-25T12:24:28.546Z,10232.00
2022-07-25T12:25:30.951Z,11020.00
2022-07-25T12:26:28.586Z,11256.00
2022-07-25T12:27:28.536Z,11416.00
2022-07-25T12:28:28.547Z,11592.00
2022-07-25T12:29:28.605Z,11932.00
2022-07-25T12:30:28.782Z,12596.00
2022-07-25T12:31:28.845Z,13996.00
2022-07-25T12:32:28.698Z,17184.00